Time;durP1;ratioP1;P1;durP2;ratioP2;P2;SDS_P1;SDS_P2;PMS_P1;PMS_P2;Temp;Humidity;BMP_temperature;BMP_pressure;BME280_temperature;BME280_humidity;BME280_pressure;Samples;Min_cycle;Max_cycle;Signal;HPM_P1;HPM_P2
2023/11/03 00:00:33;;;;;;;2.78;1.80;;;;;;;;;;13048886;22;20737;-86
2023/11/03 00:05:37;;;;;;;2.20;1.55;;;;;;;;;;13049632;22;20365;-85
2023/11/03 00:10:41;;;;;;;2.05;1.85;;;;;;;;;;13069794;22;20402;-85
2023/11/03 00:15:43;;;;;;;3.35;1.98;;;;;;;;;;13047306;22;20442;-86
2023/11/03 00:20:45;;;;;;;3.67;2.20;;;;;;;;;;13047073;22;20365;-86
2023/11/03 00:25:49;;;;;;;4.13;2.35;;;;;;;;;;13048714;22;20365;-86
2023/11/03 00:30:51;;;;;;;3.70;2.30;;;;;;;;;;13048055;22;20894;-80
2023/11/03 00:35:54;;;;;;;2.65;2.35;;;;;;;;;;13048915;22;20381;-85
2023/11/03 00:40:58;;;;;;;3.80;2.70;;;;;;;;;;13048422;22;20369;-85
2023/11/03 00:46:00;;;;;;;3.47;2.40;;;;;;;;;;13048043;22;20422;-85
2023/11/03 00:51:03;;;;;;;4.78;2.65;;;;;;;;;;13068743;22;20345;-86
2023/11/03 00:56:07;;;;;;;3.63;2.58;;;;;;;;;;13069235;22;20848;-86
2023/11/03 01:01:13;;;;;;;3.95;2.63;;;;;;;;;;13047421;22;20415;-86
2023/11/03 01:06:15;;;;;;;3.00;2.70;;;;;;;;;;13047223;22;20361;-86
2023/11/03 01:11:20;;;;;;;4.80;2.97;;;;;;;;;;13068873;22;20368;-85
2023/11/03 01:16:23;;;;;;;3.25;2.75;;;;;;;;;;13047635;22;20474;-86
2023/11/03 01:21:25;;;;;;;3.92;3.05;;;;;;;;;;13046460;22;20369;-85
2023/11/03 01:26:29;;;;;;;3.37;2.90;;;;;;;;;;13047623;22;20356;-85
2023/11/03 01:31:31;;;;;;;4.55;3.10;;;;;;;;;;13047265;22;20372;-84
2023/11/03 01:36:35;;;;;;;3.10;2.80;;;;;;;;;;13047923;22;20906;-85
2023/11/03 01:41:39;;;;;;;4.15;2.80;;;;;;;;;;13045963;22;20356;-86
2023/11/03 01:46:42;;;;;;;3.17;2.67;;;;;;;;;;13046677;22;20414;-86
2023/11/03 01:51:45;;;;;;;3.60;2.70;;;;;;;;;;13046289;22;20361;-86
2023/11/03 01:56:49;;;;;;;7.00;3.47;;;;;;;;;;13046443;22;20381;-86
2023/11/03 02:01:52;;;;;;;3.88;3.17;;;;;;;;;;13046093;22;20868;-85
2023/11/03 02:06:55;;;;;;;4.88;3.38;;;;;;;;;;13046324;22;20394;-85
2023/11/03 02:11:59;;;;;;;4.07;3.40;;;;;;;;;;13046201;22;20414;-86
2023/11/03 02:17:01;;;;;;;4.33;3.40;;;;;;;;;;13045942;22;20381;-85
2023/11/03 02:22:04;;;;;;;4.13;3.50;;;;;;;;;;13046128;22;20365;-86
2023/11/03 02:27:07;;;;;;;6.63;3.70;;;;;;;;;;13068062;22;20391;-85
2023/11/03 02:32:10;;;;;;;7.20;3.85;;;;;;;;;;13067223;22;20364;-86
2023/11/03 02:37:12;;;;;;;4.60;3.88;;;;;;;;;;13046788;22;20377;-85
2023/11/03 02:42:16;;;;;;;4.97;3.60;;;;;;;;;;13045494;22;20369;-86
2023/11/03 02:47:19;;;;;;;3.97;3.50;;;;;;;;;;13045520;22;20821;-86
2023/11/03 02:52:21;;;;;;;5.07;3.50;;;;;;;;;;13045201;22;20365;-85
2023/11/03 02:57:25;;;;;;;3.47;3.08;;;;;;;;;;13045826;22;20381;-86
2023/11/03 03:02:27;;;;;;;5.00;3.65;;;;;;;;;;13046046;22;20369;-86
2023/11/03 03:07:29;;;;;;;3.60;3.08;;;;;;;;;;13045281;22;20365;-85
2023/11/03 03:12:33;;;;;;;4.53;3.00;;;;;;;;;;13066249;22;20418;-85
2023/11/03 03:17:35;;;;;;;4.40;3.10;;;;;;;;;;13044618;22;20454;-86
2023/11/03 03:22:37;;;;;;;2.95;2.58;;;;;;;;;;13036659;22;20373;-85
2023/11/03 03:27:41;;;;;;;4.73;2.87;;;;;;;;;;13046616;22;20655;-85
2023/11/03 03:32:44;;;;;;;3.17;2.47;;;;;;;;;;13070397;22;20429;-86
2023/11/03 03:37:46;;;;;;;3.58;2.75;;;;;;;;;;13048919;22;20381;-85
2023/11/03 03:42:50;;;;;;;3.00;2.65;;;;;;;;;;13048818;22;20364;-85
2023/11/03 03:47:52;;;;;;;4.30;2.97;;;;;;;;;;13050240;22;20395;-85
2023/11/03 03:52:54;;;;;;;3.05;2.55;;;;;;;;;;13048595;22;20647;-85
2023/11/03 03:57:58;;;;;;;5.50;3.10;;;;;;;;;;13049015;22;20381;-85
2023/11/03 04:03:00;;;;;;;3.92;3.05;;;;;;;;;;13050114;22;20410;-85
2023/11/03 04:08:03;;;;;;;3.50;2.80;;;;;;;;;;13049124;22;20369;-85
2023/11/03 04:13:06;;;;;;;4.27;2.63;;;;;;;;;;13049302;22;20828;-86
2023/11/03 04:18:09;;;;;;;4.27;2.97;;;;;;;;;;13048461;22;20380;-85
2023/11/03 04:23:12;;;;;;;3.80;2.93;;;;;;;;;;13049062;22;20458;-85
2023/11/03 04:28:16;;;;;;;4.82;3.10;;;;;;;;;;13049543;22;20414;-84
2023/11/03 04:33:18;;;;;;;3.85;2.97;;;;;;;;;;13048276;22;20365;-85
2023/11/03 04:38:21;;;;;;;4.90;2.67;;;;;;;;;;13047208;22;20422;-85
2023/11/03 04:43:24;;;;;;;4.15;3.10;;;;;;;;;;13048676;22;20446;-85
2023/11/03 04:48:27;;;;;;;4.82;3.60;;;;;;;;;;13048899;22;20426;-86
2023/11/03 04:53:29;;;;;;;4.85;3.35;;;;;;;;;;13048308;22;20373;-85
2023/11/03 04:58:33;;;;;;;5.00;3.70;;;;;;;;;;13046886;22;20381;-85
2023/11/03 05:03:35;;;;;;;4.40;3.40;;;;;;;;;;13047738;22;20361;-85
2023/11/03 05:08:38;;;;;;;6.05;4.00;;;;;;;;;;13047590;22;20387;-85
2023/11/03 05:13:43;;;;;;;5.57;3.95;;;;;;;;;;13045006;22;20406;-86
2023/11/03 05:18:46;;;;;;;6.18;4.25;;;;;;;;;;13047005;22;20380;-85
2023/11/03 05:23:48;;;;;;;6.72;4.63;;;;;;;;;;13045574;22;20430;-85
2023/11/03 05:28:52;;;;;;;5.80;4.28;;;;;;;;;;13047172;22;20415;-85
2023/11/03 05:33:54;;;;;;;8.55;5.10;;;;;;;;;;13067487;22;20758;-86
2023/11/03 05:38:56;;;;;;;9.00;6.25;;;;;;;;;;13047033;22;20436;-86
2023/11/03 05:44:00;;;;;;;6.95;5.35;;;;;;;;;;13045860;22;20365;-85
2023/11/03 05:49:02;;;;;;;9.10;5.20;;;;;;;;;;13045005;22;20833;-85
2023/11/03 05:54:05;;;;;;;6.97;4.60;;;;;;;;;;13045643;22;20356;-85
2023/11/03 05:59:09;;;;;;;11.75;6.38;;;;;;;;;;13043775;22;20423;-86
2023/11/03 06:04:11;;;;;;;7.93;5.40;;;;;;;;;;13046538;22;20361;-86
2023/11/03 06:09:14;;;;;;;6.93;5.15;;;;;;;;;;13047417;22;20368;-86
2023/11/03 06:14:18;;;;;;;7.37;4.77;;;;;;;;;;13047410;22;20361;-86
2023/11/03 06:19:21;;;;;;;8.82;5.30;;;;;;;;;;13046489;22;20445;-84
2023/11/03 06:24:23;;;;;;;7.60;5.30;;;;;;;;;;13063679;22;20414;-85
2023/11/03 06:29:27;;;;;;;9.55;5.82;;;;;;;;;;13036032;22;20369;-85
2023/11/03 06:34:29;;;;;;;9.17;5.93;;;;;;;;;;13045216;22;20399;-85
2023/11/03 06:39:32;;;;;;;9.10;5.80;;;;;;;;;;13045452;22;20430;-84
2023/11/03 06:44:36;;;;;;;9.65;6.60;;;;;;;;;;13045869;22;20364;-85
2023/11/03 06:49:38;;;;;;;10.50;6.00;;;;;;;;;;13045281;22;20809;-84
2023/11/03 06:54:43;;;;;;;9.20;6.00;;;;;;;;;;13044969;22;20365;-84
2023/11/03 06:59:47;;;;;;;10.10;6.88;;;;;;;;;;13046052;22;21473;-90
2023/11/03 07:04:50;;;;;;;12.13;7.55;;;;;;;;;;13068067;22;20427;-92
2023/11/03 07:09:53;;;;;;;12.43;7.37;;;;;;;;;;13048816;22;20353;-90
2023/11/03 07:14:57;;;;;;;12.05;7.28;;;;;;;;;;13047924;22;20364;-88
2023/11/03 07:20:00;;;;;;;10.75;7.07;;;;;;;;;;13046702;22;20385;-89
2023/11/03 07:25:02;;;;;;;12.00;7.35;;;;;;;;;;13046836;22;20386;-89
2023/11/03 07:30:09;;;;;;;11.83;7.27;;;;;;;;;;13039586;22;20387;-92
2023/11/03 07:35:13;;;;;;;13.35;7.85;;;;;;;;;;13067171;22;20743;-90
2023/11/03 07:40:15;;;;;;;13.93;7.97;;;;;;;;;;13065494;22;20373;-90
2023/11/03 07:45:21;;;;;;;13.90;8.10;;;;;;;;;;13037781;22;20361;-84
2023/11/03 07:50:23;;;;;;;12.37;7.47;;;;;;;;;;13042675;22;20391;-78
2023/11/03 07:55:26;;;;;;;11.87;7.00;;;;;;;;;;13039559;22;20442;-84
2023/11/03 08:00:29;;;;;;;10.80;6.43;;;;;;;;;;13041743;22;20426;-84
2023/11/03 08:05:31;;;;;;;8.63;5.72;;;;;;;;;;13041458;22;20365;-84
2023/11/03 08:10:34;;;;;;;10.70;6.60;;;;;;;;;;13042733;22;20391;-86
2023/11/03 08:15:38;;;;;;;10.05;6.03;;;;;;;;;;13046607;22;20434;-85
2023/11/03 08:20:41;;;;;;;7.43;4.55;;;;;;;;;;13046838;22;20377;-86
2023/11/03 08:25:45;;;;;;;5.73;3.17;;;;;;;;;;13046962;22;20361;-85
2023/11/03 08:30:50;;;;;;;7.80;3.33;;;;;;;;;;13069014;22;20825;-86
2023/11/03 08:35:53;;;;;;;7.70;3.70;;;;;;;;;;13047114;22;20364;-85
2023/11/03 08:40:55;;;;;;;5.97;2.90;;;;;;;;;;13046659;22;20381;-84
2023/11/03 08:45:59;;;;;;;2.13;1.40;;;;;;;;;;13061907;22;20930;-82
2023/11/03 08:51:01;;;;;;;1.35;1.00;;;;;;;;;;13047524;22;20426;-86
2023/11/03 08:56:04;;;;;;;0.77;0.47;;;;;;;;;;13047338;22;20361;-85
2023/11/03 09:01:09;;;;;;;0.35;0.30;;;;;;;;;;13048392;22;20407;-87
2023/11/03 09:06:13;;;;;;;0.73;0.40;;;;;;;;;;13048106;22;20357;-86
2023/11/03 09:11:16;;;;;;;1.50;0.30;;;;;;;;;;13044681;22;20455;-86
2023/11/03 09:16:20;;;;;;;1.30;0.45;;;;;;;;;;13066881;22;20368;-86
2023/11/03 09:21:23;;;;;;;0.23;0.10;;;;;;;;;;13066719;22;20438;-86
2023/11/03 09:26:25;;;;;;;1.17;0.25;;;;;;;;;;13044810;22;20373;-86
2023/11/03 09:31:29;;;;;;;1.33;0.17;;;;;;;;;;13021111;22;20386;-87
2023/11/03 09:36:32;;;;;;;1.48;0.20;;;;;;;;;;12981953;22;20370;-88
2023/11/03 09:41:39;;;;;;;0.57;0.20;;;;;;;;;;13000569;22;20440;-87
2023/11/03 09:46:43;;;;;;;0.65;0.20;;;;;;;;;;12982500;22;20400;-88
2023/11/03 10:33:31;;;;;;;1.40;0.50;;;;;;;;;;10649106;27;20442;-88
2023/11/03 10:38:33;;;;;;;1.27;0.50;;;;;;;;;;10607788;27;20477;-87
2023/11/03 10:43:41;;;;;;;0.70;0.70;;;;;;;;;;10614750;27;20413;-87
2023/11/03 10:48:47;;;;;;;1.60;0.60;;;;;;;;;;10614158;27;20952;-88
2023/11/03 10:54:00;;;;;;;2.10;0.87;;;;;;;;;;10603856;27;20423;-88
2023/11/03 10:59:04;;;;;;;0.70;0.60;;;;;;;;;;10600325;27;20437;-84
2023/11/03 11:04:16;;;;;;;1.25;0.70;;;;;;;;;;10576539;27;20894;-84
2023/11/03 11:09:25;;;;;;;0.98;0.43;;;;;;;;;;10588514;27;20954;-84
2023/11/03 11:14:27;;;;;;;0.60;0.38;;;;;;;;;;10584051;27;20425;-82
2023/11/03 11:19:37;;;;;;;0.50;0.50;;;;;;;;;;10601519;27;20415;-84
2023/11/03 11:24:40;;;;;;;0.70;0.50;;;;;;;;;;10595780;27;21062;-83
2023/11/03 11:29:43;;;;;;;0.68;0.47;;;;;;;;;;10593332;27;20466;-84
2023/11/03 11:34:47;;;;;;;0.30;0.30;;;;;;;;;;10570394;27;20806;-85
2023/11/03 11:39:50;;;;;;;0.77;0.30;;;;;;;;;;10570267;28;20415;-85
2023/11/03 11:44:54;;;;;;;0.57;0.50;;;;;;;;;;10566000;28;20398;-85
2023/11/03 11:49:59;;;;;;;0.80;0.40;;;;;;;;;;10562124;27;20469;-84
2023/11/03 11:55:02;;;;;;;0.70;0.57;;;;;;;;;;10557407;28;20434;-85
2023/11/03 12:00:07;;;;;;;1.40;0.45;;;;;;;;;;10552713;27;20481;-85
2023/11/03 12:05:13;;;;;;;1.30;0.47;;;;;;;;;;10557464;27;20434;-82
2023/11/03 12:10:16;;;;;;;0.50;0.50;;;;;;;;;;10549147;27;20430;-85
2023/11/03 12:15:19;;;;;;;0.93;0.50;;;;;;;;;;10544122;27;20430;-84
2023/11/03 12:20:23;;;;;;;0.77;0.77;;;;;;;;;;10544519;28;20507;-83
2023/11/03 12:25:25;;;;;;;0.87;0.70;;;;;;;;;;10550256;27;20508;-84
2023/11/03 12:30:28;;;;;;;1.30;0.80;;;;;;;;;;10568410;28;20410;-85
2023/11/03 12:35:33;;;;;;;0.70;0.68;;;;;;;;;;10553606;27;20438;-85
2023/11/03 12:40:35;;;;;;;2.03;1.00;;;;;;;;;;10538054;28;20930;-86
2023/11/03 12:45:38;;;;;;;1.20;1.02;;;;;;;;;;10544417;27;21404;-85
2023/11/03 12:50:50;;;;;;;2.00;1.13;;;;;;;;;;10553806;28;20452;-84
2023/11/03 12:56:00;;;;;;;2.70;1.10;;;;;;;;;;10552070;27;20504;-85
2023/11/03 13:01:04;;;;;;;1.48;1.20;;;;;;;;;;10549304;27;20910;-86
2023/11/03 13:06:11;;;;;;;1.90;1.23;;;;;;;;;;10549336;27;20475;-86
2023/11/03 13:11:13;;;;;;;1.42;1.00;;;;;;;;;;10548132;27;20440;-86
2023/11/03 13:16:15;;;;;;;1.20;1.10;;;;;;;;;;10554697;28;21183;-85
2023/11/03 13:21:19;;;;;;;0.90;0.70;;;;;;;;;;10564347;28;20446;-85
2023/11/03 13:26:22;;;;;;;1.10;1.00;;;;;;;;;;10555892;28;21046;-86
2023/11/03 13:31:24;;;;;;;1.80;1.30;;;;;;;;;;10560403;28;20542;-85
2023/11/03 13:36:29;;;;;;;3.40;1.40;;;;;;;;;;10562631;28;20921;-84
2023/11/03 13:41:31;;;;;;;3.13;1.58;;;;;;;;;;10561195;28;20446;-81
2023/11/03 13:46:33;;;;;;;1.90;1.20;;;;;;;;;;10557787;28;21032;-84
2023/11/03 13:51:38;;;;;;;2.72;1.52;;;;;;;;;;10557053;27;20442;-84
2023/11/03 13:56:41;;;;;;;1.98;1.20;;;;;;;;;;10553979;27;20471;-83
2023/11/03 14:01:43;;;;;;;2.00;1.23;;;;;;;;;;10544928;28;20450;-83
2023/11/03 14:06:48;;;;;;;1.70;1.00;;;;;;;;;;10564905;28;20491;-84
2023/11/03 14:11:52;;;;;;;1.23;0.93;;;;;;;;;;10563353;27;20843;-85
2023/11/03 14:16:55;;;;;;;1.50;1.40;;;;;;;;;;10555141;27;20418;-84
2023/11/03 14:21:58;;;;;;;1.70;0.90;;;;;;;;;;10561212;28;20472;-83
2023/11/03 14:27:01;;;;;;;1.73;1.20;;;;;;;;;;10561458;28;20410;-84
2023/11/03 14:32:05;;;;;;;1.58;1.40;;;;;;;;;;10558981;28;20407;-84
2023/11/03 14:37:10;;;;;;;0.95;0.70;;;;;;;;;;10556552;28;20468;-82
2023/11/03 14:42:12;;;;;;;2.23;1.00;;;;;;;;;;10557696;28;20445;-82
2023/11/03 14:47:16;;;;;;;1.00;0.85;;;;;;;;;;10564484;28;20877;-82
2023/11/03 14:52:19;;;;;;;1.10;1.00;;;;;;;;;;10562957;28;20464;-83
2023/11/03 14:57:22;;;;;;;0.90;0.73;;;;;;;;;;10559606;28;20398;-84
2023/11/03 15:02:25;;;;;;;2.28;1.20;;;;;;;;;;10550682;28;20446;-85
2023/11/03 15:07:30;;;;;;;4.50;2.47;;;;;;;;;;10564853;28;20402;-84
2023/11/03 15:12:32;;;;;;;2.33;1.30;;;;;;;;;;10578114;27;20394;-84
2023/11/03 15:17:35;;;;;;;2.87;1.60;;;;;;;;;;10566567;28;20472;-85
2023/11/03 15:22:39;;;;;;;2.53;1.40;;;;;;;;;;10565982;28;20476;-85
2023/11/03 15:27:42;;;;;;;2.22;1.20;;;;;;;;;;10554126;28;20409;-86
2023/11/03 15:32:45;;;;;;;2.20;1.00;;;;;;;;;;10568957;28;20414;-85
2023/11/03 15:37:48;;;;;;;1.27;0.80;;;;;;;;;;10563107;28;20889;-85
2023/11/03 15:42:51;;;;;;;2.60;1.40;;;;;;;;;;10559443;28;20408;-85
2023/11/03 15:47:53;;;;;;;4.10;2.00;;;;;;;;;;10562854;28;20454;-85
2023/11/03 15:52:57;;;;;;;2.40;1.17;;;;;;;;;;10558036;28;20457;-85
2023/11/03 15:58:00;;;;;;;1.80;1.08;;;;;;;;;;10552749;28;20459;-84
2023/11/03 16:03:02;;;;;;;1.95;1.15;;;;;;;;;;10557166;28;20481;-85
2023/11/03 16:08:09;;;;;;;2.42;1.45;;;;;;;;;;10563734;28;20408;-85
2023/11/03 16:13:13;;;;;;;3.20;1.93;;;;;;;;;;10548144;28;20393;-85
2023/11/03 16:18:16;;;;;;;3.78;2.55;;;;;;;;;;10555743;28;20466;-85
2023/11/03 16:23:20;;;;;;;3.83;2.75;;;;;;;;;;10543732;28;20452;-85
2023/11/03 16:28:24;;;;;;;4.15;2.90;;;;;;;;;;10558074;28;20480;-84
2023/11/03 16:33:27;;;;;;;5.90;3.30;;;;;;;;;;10553840;28;20436;-84
2023/11/03 16:38:32;;;;;;;6.13;3.45;;;;;;;;;;10542216;28;20436;-85
2023/11/03 16:43:34;;;;;;;6.07;3.60;;;;;;;;;;10547842;28;20877;-84
2023/11/03 16:48:36;;;;;;;5.00;3.35;;;;;;;;;;10542224;27;20489;-84
2023/11/03 16:53:40;;;;;;;7.53;5.50;;;;;;;;;;10545972;28;20484;-84
2023/11/03 16:58:43;;;;;;;8.23;6.13;;;;;;;;;;10547025;27;20434;-84
2023/11/03 17:03:45;;;;;;;7.40;5.60;;;;;;;;;;10555170;27;21129;-83
2023/11/03 17:08:49;;;;;;;7.57;5.67;;;;;;;;;;10560482;27;20484;-84
2023/11/03 17:13:51;;;;;;;6.63;4.85;;;;;;;;;;10556564;27;20679;-85
2023/11/03 17:18:53;;;;;;;7.32;5.93;;;;;;;;;;10563187;27;20407;-86
2023/11/03 17:23:58;;;;;;;7.22;5.95;;;;;;;;;;10548173;27;20466;-85
2023/11/03 17:29:02;;;;;;;7.77;5.40;;;;;;;;;;10548951;27;20550;-85
2023/11/03 17:34:05;;;;;;;7.70;5.03;;;;;;;;;;10546771;28;20432;-85
2023/11/03 17:39:14;;;;;;;6.38;5.35;;;;;;;;;;10562057;27;20464;-86
2023/11/03 17:44:16;;;;;;;9.77;6.65;;;;;;;;;;10554903;28;20455;-85
2023/11/03 17:49:19;;;;;;;8.07;6.75;;;;;;;;;;10559382;27;20497;-84
2023/11/03 17:54:24;;;;;;;8.23;6.90;;;;;;;;;;10567508;27;20460;-86
2023/11/03 17:59:27;;;;;;;12.50;6.90;;;;;;;;;;10543326;28;20510;-85
2023/11/03 18:04:31;;;;;;;9.50;7.28;;;;;;;;;;10560978;27;20503;-85
2023/11/03 18:09:35;;;;;;;10.02;6.85;;;;;;;;;;10565349;27;20819;-86
2023/11/03 18:14:39;;;;;;;9.00;6.60;;;;;;;;;;10568937;27;20439;-85
2023/11/03 18:19:42;;;;;;;10.43;7.03;;;;;;;;;;10545747;28;20434;-86
2023/11/03 18:24:46;;;;;;;10.85;6.72;;;;;;;;;;10550623;28;21124;-85
2023/11/03 18:29:49;;;;;;;10.73;8.00;;;;;;;;;;10540103;28;20564;-87
2023/11/03 18:34:51;;;;;;;13.03;8.83;;;;;;;;;;10557489;28;20483;-86
2023/11/03 18:39:55;;;;;;;11.97;8.90;;;;;;;;;;10548452;28;20480;-88
2023/11/03 18:44:57;;;;;;;9.57;7.72;;;;;;;;;;10558170;28;20556;-85
2023/11/03 18:50:00;;;;;;;14.23;10.18;;;;;;;;;;10547613;28;20434;-86
2023/11/03 18:55:05;;;;;;;14.33;10.17;;;;;;;;;;10563316;27;20432;-85
2023/11/03 19:00:11;;;;;;;10.43;7.83;;;;;;;;;;10555459;28;20535;-87
2023/11/03 19:05:13;;;;;;;13.73;9.02;;;;;;;;;;10549637;28;20515;-87
2023/11/03 19:10:17;;;;;;;12.10;8.35;;;;;;;;;;10555812;28;21048;-86
2023/11/03 19:15:20;;;;;;;15.13;8.70;;;;;;;;;;10544245;28;20438;-86
2023/11/03 19:20:25;;;;;;;12.38;8.75;;;;;;;;;;10549423;27;21003;-85
2023/11/03 19:25:29;;;;;;;11.05;7.43;;;;;;;;;;10547046;28;20496;-85
2023/11/03 19:30:34;;;;;;;11.93;7.57;;;;;;;;;;10569899;27;20402;-86
2023/11/03 19:35:47;;;;;;;11.03;6.87;;;;;;;;;;10548884;27;21334;-87
2023/11/03 19:40:51;;;;;;;9.35;6.38;;;;;;;;;;10561497;27;20455;-86
2023/11/03 19:45:55;;;;;;;16.73;11.57;;;;;;;;;;10555116;28;20929;-85
2023/11/03 19:50:57;;;;;;;19.50;11.38;;;;;;;;;;10555950;27;20487;-86
2023/11/03 19:56:02;;;;;;;18.27;11.48;;;;;;;;;;10554173;27;20469;-86
2023/11/03 20:01:05;;;;;;;15.07;10.57;;;;;;;;;;10555701;27;20441;-84
2023/11/03 20:06:08;;;;;;;13.93;8.85;;;;;;;;;;10558966;27;20446;-87
2023/11/03 20:11:11;;;;;;;11.95;7.43;;;;;;;;;;10559595;27;20519;-88
2023/11/03 20:16:15;;;;;;;9.20;6.50;;;;;;;;;;10556906;27;20440;-87
2023/11/03 20:21:17;;;;;;;8.02;5.88;;;;;;;;;;10572678;27;20407;-87
2023/11/03 20:26:21;;;;;;;8.23;6.00;;;;;;;;;;10570687;27;20407;-87
2023/11/03 20:31:24;;;;;;;6.57;5.60;;;;;;;;;;10568257;27;21002;-86
2023/11/03 20:36:27;;;;;;;9.50;6.03;;;;;;;;;;10580099;27;20414;-84
2023/11/03 20:41:31;;;;;;;9.17;7.13;;;;;;;;;;10570310;28;20407;-85
2023/11/03 20:46:34;;;;;;;10.10;6.53;;;;;;;;;;10560966;27;20410;-84
2023/11/03 20:51:36;;;;;;;10.30;7.38;;;;;;;;;;10565510;27;21234;-86
2023/11/03 20:56:40;;;;;;;9.82;7.45;;;;;;;;;;10553534;28;20440;-85
2023/11/03 21:01:42;;;;;;;23.67;13.52;;;;;;;;;;10557376;27;20442;-84
2023/11/03 21:06:45;;;;;;;8.20;6.68;;;;;;;;;;10553235;28;20446;-85
2023/11/03 21:11:51;;;;;;;7.55;5.85;;;;;;;;;;10566063;27;20430;-84
2023/11/03 21:16:53;;;;;;;7.43;5.47;;;;;;;;;;10541430;28;20794;-84
2023/11/03 21:21:56;;;;;;;6.18;4.80;;;;;;;;;;10560056;27;20438;-85
2023/11/03 21:27:00;;;;;;;7.47;4.90;;;;;;;;;;10553306;28;20438;-85
2023/11/03 21:32:03;;;;;;;7.72;6.15;;;;;;;;;;10548194;27;20438;-83
2023/11/03 21:37:05;;;;;;;9.27;6.87;;;;;;;;;;10566852;27;20490;-83
2023/11/03 21:42:10;;;;;;;10.52;7.13;;;;;;;;;;10561780;27;20464;-85
2023/11/03 21:47:12;;;;;;;10.80;7.90;;;;;;;;;;10565470;28;20411;-84
2023/11/03 21:52:14;;;;;;;9.35;6.88;;;;;;;;;;10565938;28;20414;-85
2023/11/03 21:57:18;;;;;;;9.18;7.10;;;;;;;;;;10560073;27;21115;-84
2023/11/03 22:02:21;;;;;;;9.77;7.40;;;;;;;;;;10562192;28;20415;-84
2023/11/03 22:07:23;;;;;;;11.98;7.15;;;;;;;;;;10565294;28;20902;-83
2023/11/03 22:12:27;;;;;;;8.43;6.60;;;;;;;;;;10559800;27;20410;-85
2023/11/03 22:17:30;;;;;;;9.55;7.13;;;;;;;;;;10558145;28;20494;-85
2023/11/03 22:22:33;;;;;;;9.60;7.43;;;;;;;;;;10563375;28;20442;-84
2023/11/03 22:27:37;;;;;;;9.38;6.63;;;;;;;;;;10557175;28;20483;-84
2023/11/03 22:32:40;;;;;;;9.47;7.17;;;;;;;;;;10552382;28;20552;-84
2023/11/03 22:37:43;;;;;;;13.33;7.13;;;;;;;;;;10555031;28;20570;-84
2023/11/03 22:42:47;;;;;;;9.70;7.27;;;;;;;;;;10554799;28;20453;-84
2023/11/03 22:47:49;;;;;;;8.85;6.30;;;;;;;;;;10550844;28;20998;-85
2023/11/03 22:52:51;;;;;;;10.43;6.20;;;;;;;;;;10546755;28;20434;-84
2023/11/03 22:57:55;;;;;;;9.40;6.30;;;;;;;;;;10560830;28;20400;-84
2023/11/03 23:02:59;;;;;;;10.48;6.32;;;;;;;;;;10561404;28;20451;-83
2023/11/03 23:08:02;;;;;;;12.63;6.72;;;;;;;;;;10554105;28;20428;-85
2023/11/03 23:13:05;;;;;;;11.15;7.07;;;;;;;;;;10550111;28;20451;-85
2023/11/03 23:18:08;;;;;;;8.48;6.05;;;;;;;;;;10554006;28;20541;-83
2023/11/03 23:23:10;;;;;;;7.28;5.70;;;;;;;;;;10556261;28;20451;-85
2023/11/03 23:28:14;;;;;;;8.32;5.97;;;;;;;;;;10563431;28;20874;-83
2023/11/03 23:33:16;;;;;;;7.40;5.53;;;;;;;;;;10557808;28;20824;-84
2023/11/03 23:38:18;;;;;;;8.27;5.80;;;;;;;;;;10574578;28;20399;-84
2023/11/03 23:43:22;;;;;;;8.17;5.70;;;;;;;;;;10573037;27;20473;-84
2023/11/03 23:48:24;;;;;;;8.05;5.50;;;;;;;;;;10569250;28;20457;-84
2023/11/03 23:53:27;;;;;;;10.32;6.70;;;;;;;;;;10575625;27;20404;-84
2023/11/03 23:58:30;;;;;;;8.48;6.47;;;;;;;;;;10569839;27;20440;-84
